Time;durP1;ratioP1;P1;durP2;ratioP2;P2;SDS_P1;SDS_P2;PMS_P1;PMS_P2;Temp;Humidity;BMP_temperature;BMP_pressure;BME280_temperature;BME280_humidity;BME280_pressure;Samples;Min_cycle;Max_cycle;Signal;HPM_P1;HPM_P2
2023/01/31 00:01:20;;;;;;;;;;;27.20;99.90;;;;;;5033631;28;19920;-74
2023/01/31 00:03:47;;;;;;;;;;;27.40;99.90;;;;;;5032929;28;19917;-72
2023/01/31 00:06:14;;;;;;;;;;;27.60;99.90;;;;;;5032832;28;20413;-74
2023/01/31 00:08:41;;;;;;;;;;;27.70;99.90;;;;;;5030864;28;20450;-74
2023/01/31 00:11:07;;;;;;;;;;;27.60;99.90;;;;;;5032345;28;20440;-74
2023/01/31 00:13:35;;;;;;;;;;;27.50;99.90;;;;;;5031607;28;19912;-75
2023/01/31 00:16:01;;;;;;;;;;;27.40;99.90;;;;;;5033156;28;19923;-75
2023/01/31 00:18:28;;;;;;;;;;;27.40;99.90;;;;;;5031805;28;19917;-75
2023/01/31 00:20:54;;;;;;;;;;;27.30;99.90;;;;;;5032215;28;19978;-74
2023/01/31 00:23:22;;;;;;;;;;;27.30;99.90;;;;;;5031493;28;19917;-74
2023/01/31 00:25:48;;;;;;;;;;;27.30;99.90;;;;;;5033885;28;20870;-74
2023/01/31 00:28:15;;;;;;;;;;;27.30;99.90;;;;;;5032205;28;20020;-75
2023/01/31 00:30:41;;;;;;;;;;;27.30;99.90;;;;;;5032264;28;19917;-75
2023/01/31 00:33:08;;;;;;;;;;;27.30;99.90;;;;;;5030349;28;19967;-74
2023/01/31 00:35:37;;;;;;;;;;;27.50;99.90;;;;;;5028224;28;19921;-74
2023/01/31 00:38:04;;;;;;;;;;;27.60;99.90;;;;;;5025796;28;20323;-74
2023/01/31 00:40:31;;;;;;;;;;;27.70;99.90;;;;;;5025100;28;19924;-74
2023/01/31 00:42:58;;;;;;;;;;;27.70;99.90;;;;;;5023482;28;20003;-74
2023/01/31 00:45:24;;;;;;;;;;;27.90;99.70;;;;;;5027085;28;19912;-75
2023/01/31 00:47:51;;;;;;;;;;;28.20;99.90;;;;;;5024658;28;19917;-74
2023/01/31 00:50:18;;;;;;;;;;;28.30;99.10;;;;;;5032439;28;19919;-75
2023/01/31 00:52:45;;;;;;;;;;;28.30;99.20;;;;;;5027870;28;19913;-75
2023/01/31 00:55:12;;;;;;;;;;;28.30;98.60;;;;;;5030219;28;20345;-75
2023/01/31 00:57:39;;;;;;;;;;;28.30;99.30;;;;;;5028804;28;19928;-75
2023/01/31 01:00:06;;;;;;;;;;;28.10;99.20;;;;;;5030431;28;19959;-74
2023/01/31 01:02:32;;;;;;;;;;;28.10;99.50;;;;;;5027073;28;19917;-73
2023/01/31 01:04:59;;;;;;;;;;;28.00;99.20;;;;;;5027404;28;20258;-74
2023/01/31 01:07:26;;;;;;;;;;;28.00;99.50;;;;;;5030771;28;19919;-74
2023/01/31 01:09:53;;;;;;;;;;;28.10;99.10;;;;;;5029724;28;20011;-74
2023/01/31 01:12:19;;;;;;;;;;;28.20;99.20;;;;;;5029345;28;20392;-74
2023/01/31 01:14:46;;;;;;;;;;;28.30;98.80;;;;;;5029239;28;19923;-74
2023/01/31 01:17:13;;;;;;;;;;;28.30;99.10;;;;;;5031677;28;20035;-75
2023/01/31 01:19:40;;;;;;;;;;;28.30;99.20;;;;;;5032548;28;19960;-74
2023/01/31 01:22:06;;;;;;;;;;;28.40;99.10;;;;;;5035212;28;19920;-75
2023/01/31 01:24:33;;;;;;;;;;;28.40;99.10;;;;;;5035167;28;20021;-74
2023/01/31 01:27:00;;;;;;;;;;;28.70;98.80;;;;;;5031490;28;20274;-76
2023/01/31 01:29:26;;;;;;;;;;;28.80;99.10;;;;;;5033099;28;20379;-75
2023/01/31 01:31:53;;;;;;;;;;;29.00;98.70;;;;;;5035782;28;19917;-75
2023/01/31 01:34:20;;;;;;;;;;;29.30;98.90;;;;;;5035788;28;19978;-74
2023/01/31 01:36:47;;;;;;;;;;;29.60;98.40;;;;;;5035860;28;20014;-74
2023/01/31 01:39:13;;;;;;;;;;;29.60;97.60;;;;;;5031072;28;20281;-74
2023/01/31 01:41:41;;;;;;;;;;;29.70;97.70;;;;;;5030745;28;19990;-74
2023/01/31 01:44:25;;;;;;;;;;;29.90;97.20;;;;;;5028857;28;19916;-74
2023/01/31 01:46:53;;;;;;;;;;;30.10;96.70;;;;;;5032471;28;19917;-74
2023/01/31 01:49:22;;;;;;;;;;;30.40;96.90;;;;;;5032871;28;19916;-74
2023/01/31 01:51:51;;;;;;;;;;;30.80;97.30;;;;;;5035118;28;19966;-74
2023/01/31 01:54:24;;;;;;;;;;;31.20;96.60;;;;;;5029024;28;19917;-74
2023/01/31 01:56:53;;;;;;;;;;;31.60;96.70;;;;;;5027843;28;20450;-75
2023/01/31 01:59:28;;;;;;;;;;;31.80;95.30;;;;;;5029821;28;19916;-75
2023/01/31 02:01:56;;;;;;;;;;;32.00;95.60;;;;;;5031675;28;19925;-74
2023/01/31 02:04:23;;;;;;;;;;;31.80;95.50;;;;;;5031592;28;19917;-74
2023/01/31 02:06:51;;;;;;;;;;;31.50;95.90;;;;;;5035898;28;19913;-75
2023/01/31 02:09:34;;;;;;;;;;;31.10;95.90;;;;;;5033375;28;19944;-74
2023/01/31 02:12:01;;;;;;;;;;;30.90;96.00;;;;;;5036490;28;19923;-75
2023/01/31 02:14:28;;;;;;;;;;;30.80;96.40;;;;;;5035097;28;19917;-75
2023/01/31 02:16:55;;;;;;;;;;;30.70;96.60;;;;;;5035772;28;19913;-74
2023/01/31 02:19:33;;;;;;;;;;;30.60;96.50;;;;;;5034747;28;19991;-74
2023/01/31 02:22:04;;;;;;;;;;;30.50;97.00;;;;;;5034627;28;19921;-74
2023/01/31 02:24:30;;;;;;;;;;;30.40;96.80;;;;;;5049144;28;19913;-75
2023/01/31 02:27:15;;;;;;;;;;;30.20;96.60;;;;;;5034716;28;19917;-74
2023/01/31 02:29:42;;;;;;;;;;;30.00;97.10;;;;;;5034330;28;19913;-74
2023/01/31 02:32:30;;;;;;;;;;;29.90;97.30;;;;;;5033899;28;19917;-74
2023/01/31 02:35:17;;;;;;;;;;;29.90;97.20;;;;;;5035005;28;19919;-74
2023/01/31 02:37:53;;;;;;;;;;;30.00;97.20;;;;;;5004697;28;19920;-74
2023/01/31 02:40:26;;;;;;;;;;;30.00;96.90;;;;;;5035275;28;19921;-74
2023/01/31 02:43:11;;;;;;;;;;;30.30;96.80;;;;;;5035038;28;20318;-74
2023/01/31 02:45:56;;;;;;;;;;;30.40;96.80;;;;;;5035118;28;19955;-75
2023/01/31 02:48:26;;;;;;;;;;;30.60;97.10;;;;;;5033644;28;19916;-75
2023/01/31 02:51:07;;;;;;;;;;;30.70;96.60;;;;;;5035509;28;19916;-74
2023/01/31 02:53:42;;;;;;;;;;;30.80;96.30;;;;;;5033192;28;19916;-75
2023/01/31 02:56:18;;;;;;;;;;;30.70;96.00;;;;;;5028513;28;19917;-77
2023/01/31 02:59:03;;;;;;;;;;;30.60;97.00;;;;;;5029500;28;19916;-75
2023/01/31 03:01:34;;;;;;;;;;;30.60;96.40;;;;;;5032904;28;20458;-73
2023/01/31 03:04:05;;;;;;;;;;;30.50;96.60;;;;;;5032322;28;19917;-74
2023/01/31 03:06:35;;;;;;;;;;;30.50;96.90;;;;;;5033100;28;19923;-74
2023/01/31 03:09:01;;;;;;;;;;;30.30;96.20;;;;;;5042112;28;20004;-75
2023/01/31 03:11:52;;;;;;;;;;;30.60;96.90;;;;;;5035303;28;19917;-74
2023/01/31 03:14:26;;;;;;;;;;;31.30;97.10;;;;;;5028558;28;19951;-75
2023/01/31 03:19:47;;;;;;;;;;;32.20;95.80;;;;;;5043196;28;19984;-74
2023/01/31 03:22:23;;;;;;;;;;;32.60;95.70;;;;;;5034069;28;19979;-76
2023/01/31 03:24:49;;;;;;;;;;;32.90;95.00;;;;;;5043592;28;19912;-75
2023/01/31 03:27:16;;;;;;;;;;;32.60;94.80;;;;;;5038156;28;19917;-75
2023/01/31 03:29:43;;;;;;;;;;;32.70;95.50;;;;;;5027558;28;20421;-75
2023/01/31 03:32:28;;;;;;;;;;;33.00;95.30;;;;;;5028146;28;19923;-75
2023/01/31 03:34:55;;;;;;;;;;;32.80;95.30;;;;;;5026658;28;19920;-75
2023/01/31 03:37:28;;;;;;;;;;;32.40;95.20;;;;;;5032769;28;20295;-75
2023/01/31 03:40:00;;;;;;;;;;;32.50;95.20;;;;;;5036280;28;19943;-75
2023/01/31 03:42:45;;;;;;;;;;;32.70;95.80;;;;;;5035697;28;19970;-76
2023/01/31 03:45:19;;;;;;;;;;;33.00;95.40;;;;;;5035994;28;19916;-76
2023/01/31 03:47:47;;;;;;;;;;;33.10;94.80;;;;;;5033460;28;19917;-75
2023/01/31 03:50:20;;;;;;;;;;;33.30;94.60;;;;;;5032014;28;19912;-76
2023/01/31 03:52:57;;;;;;;;;;;33.40;95.50;;;;;;5032748;28;19970;-74
2023/01/31 03:55:30;;;;;;;;;;;33.60;94.00;;;;;;5032594;28;19996;-75
2023/01/31 03:57:57;;;;;;;;;;;33.80;94.40;;;;;;5033138;28;19916;-75
2023/01/31 04:00:25;;;;;;;;;;;33.80;94.70;;;;;;5033335;28;19916;-76
2023/01/31 04:02:55;;;;;;;;;;;34.00;95.10;;;;;;5045572;28;19913;-75
2023/01/31 04:05:24;;;;;;;;;;;34.20;93.90;;;;;;5050256;28;19916;-74
2023/01/31 04:07:51;;;;;;;;;;;34.30;94.10;;;;;;5050750;28;19908;-74
2023/01/31 04:10:18;;;;;;;;;;;34.30;93.90;;;;;;5051428;28;19948;-75
2023/01/31 04:12:46;;;;;;;;;;;34.30;93.60;;;;;;5051191;28;19913;-75
2023/01/31 04:15:13;;;;;;;;;;;34.00;92.60;;;;;;5061593;28;19947;-74
2023/01/31 04:17:40;;;;;;;;;;;33.40;92.70;;;;;;5040841;28;19912;-75
2023/01/31 04:20:08;;;;;;;;;;;32.90;93.40;;;;;;5031396;28;20425;-74
2023/01/31 04:22:35;;;;;;;;;;;32.90;94.10;;;;;;5026586;28;19912;-74
2023/01/31 04:25:03;;;;;;;;;;;33.10;93.80;;;;;;5031731;28;19923;-75
2023/01/31 04:27:29;;;;;;;;;;;33.40;93.30;;;;;;5031739;28;19920;-74
2023/01/31 04:29:56;;;;;;;;;;;33.80;94.10;;;;;;5032820;28;19916;-75
2023/01/31 04:32:22;;;;;;;;;;;34.00;93.50;;;;;;5032654;28;20359;-75
2023/01/31 04:34:49;;;;;;;;;;;34.10;93.40;;;;;;5031467;28;20015;-74
2023/01/31 04:37:16;;;;;;;;;;;34.00;93.40;;;;;;5032280;28;19921;-75
2023/01/31 04:39:43;;;;;;;;;;;33.60;92.90;;;;;;5031421;28;22038;-75
2023/01/31 04:42:10;;;;;;;;;;;33.20;93.00;;;;;;5032846;28;19917;-75
2023/01/31 04:44:37;;;;;;;;;;;33.20;93.50;;;;;;5032399;28;19913;-75
2023/01/31 04:47:04;;;;;;;;;;;33.40;92.90;;;;;;5032186;28;19916;-75
2023/01/31 04:49:30;;;;;;;;;;;33.30;93.00;;;;;;5033133;28;20360;-76
2023/01/31 04:51:57;;;;;;;;;;;33.50;93.50;;;;;;5032743;28;20010;-74
2023/01/31 04:54:24;;;;;;;;;;;33.70;93.00;;;;;;5026821;28;19963;-74
2023/01/31 04:56:51;;;;;;;;;;;33.80;93.90;;;;;;5036235;28;19912;-75
2023/01/31 04:59:17;;;;;;;;;;;33.80;93.00;;;;;;5037641;28;19956;-75
2023/01/31 05:01:44;;;;;;;;;;;33.50;92.50;;;;;;5037597;28;20427;-72
2023/01/31 05:04:11;;;;;;;;;;;33.20;93.10;;;;;;5038598;28;19947;-75
2023/01/31 05:06:38;;;;;;;;;;;33.20;92.70;;;;;;5038035;28;20856;-76
2023/01/31 05:09:05;;;;;;;;;;;33.10;93.80;;;;;;5033388;28;19992;-74
2023/01/31 05:11:32;;;;;;;;;;;32.90;93.10;;;;;;5033018;28;19956;-75
2023/01/31 05:13:59;;;;;;;;;;;32.60;93.30;;;;;;5033231;28;20351;-75
2023/01/31 05:16:25;;;;;;;;;;;32.30;93.40;;;;;;5035310;28;19917;-75
2023/01/31 05:18:52;;;;;;;;;;;31.90;93.60;;;;;;5031662;28;20010;-75
2023/01/31 05:21:19;;;;;;;;;;;31.90;94.00;;;;;;5031125;28;19921;-73
2023/01/31 05:23:46;;;;;;;;;;;32.10;94.60;;;;;;5031355;28;19917;-72
2023/01/31 05:26:13;;;;;;;;;;;32.10;93.60;;;;;;5034100;28;19927;-72
2023/01/31 05:28:43;;;;;;;;;;;32.30;94.30;;;;;;5033874;28;19922;-73
2023/01/31 05:31:11;;;;;;;;;;;32.70;94.10;;;;;;5038019;28;19921;-72
2023/01/31 05:33:38;;;;;;;;;;;33.20;93.70;;;;;;5037442;28;19916;-73
2023/01/31 05:36:05;;;;;;;;;;;33.40;92.50;;;;;;5036464;28;19917;-74
2023/01/31 05:38:32;;;;;;;;;;;33.30;92.80;;;;;;5036483;28;19928;-73
2023/01/31 05:40:58;;;;;;;;;;;33.10;92.80;;;;;;5037482;28;19921;-73
2023/01/31 05:43:25;;;;;;;;;;;33.00;93.40;;;;;;5037851;28;19966;-74
2023/01/31 05:45:55;;;;;;;;;;;32.80;93.60;;;;;;5037567;28;19960;-73
2023/01/31 05:48:22;;;;;;;;;;;32.50;93.30;;;;;;5037927;28;19916;-74
2023/01/31 05:50:49;;;;;;;;;;;32.20;93.50;;;;;;5038279;28;19923;-74
2023/01/31 05:53:17;;;;;;;;;;;31.80;94.00;;;;;;5037177;28;19924;-76
2023/01/31 05:55:44;;;;;;;;;;;31.70;94.20;;;;;;5036968;28;20007;-76
2023/01/31 05:58:11;;;;;;;;;;;31.60;94.50;;;;;;5037265;28;19944;-75
2023/01/31 06:00:38;;;;;;;;;;;31.50;94.30;;;;;;5037161;28;20352;-75
2023/01/31 06:03:04;;;;;;;;;;;31.40;94.30;;;;;;5035821;28;19912;-75
2023/01/31 06:05:32;;;;;;;;;;;31.30;94.50;;;;;;5036836;28;19912;-75
2023/01/31 06:07:59;;;;;;;;;;;31.20;94.50;;;;;;5032728;28;20321;-75
2023/01/31 06:10:26;;;;;;;;;;;31.40;95.00;;;;;;5034446;28;20008;-74
2023/01/31 06:12:53;;;;;;;;;;;31.60;94.50;;;;;;5032909;28;19990;-74
2023/01/31 06:15:20;;;;;;;;;;;31.90;94.10;;;;;;5036374;28;19913;-74
2023/01/31 06:17:46;;;;;;;;;;;32.20;94.00;;;;;;5027333;28;20375;-74
2023/01/31 06:20:13;;;;;;;;;;;32.40;94.00;;;;;;5032241;28;19999;-74
2023/01/31 06:22:40;;;;;;;;;;;32.20;93.50;;;;;;5034497;28;20428;-74
2023/01/31 06:25:07;;;;;;;;;;;31.80;93.50;;;;;;5033679;28;19912;-75
2023/01/31 06:27:34;;;;;;;;;;;31.20;95.10;;;;;;5033826;28;20030;-74
2023/01/31 06:30:01;;;;;;;;;;;30.70;95.70;;;;;;5046141;28;19919;-73
2023/01/31 06:32:27;;;;;;;;;;;30.30;96.30;;;;;;5033234;28;19962;-74
2023/01/31 06:34:54;;;;;;;;;;;29.90;96.80;;;;;;5031145;28;19917;-75
2023/01/31 06:37:21;;;;;;;;;;;29.60;97.30;;;;;;5033591;28;19978;-75
2023/01/31 06:39:48;;;;;;;;;;;29.60;97.50;;;;;;5034219;28;19913;-75
2023/01/31 06:42:14;;;;;;;;;;;29.50;97.40;;;;;;5034369;28;20322;-75
2023/01/31 06:44:41;;;;;;;;;;;29.50;97.80;;;;;;5032677;28;19921;-75
2023/01/31 06:47:09;;;;;;;;;;;29.50;97.70;;;;;;5034955;28;22248;-73
2023/01/31 06:49:36;;;;;;;;;;;29.60;97.70;;;;;;5026420;28;19971;-73
2023/01/31 06:52:02;;;;;;;;;;;29.60;98.10;;;;;;5034878;28;20325;-74
2023/01/31 06:54:29;;;;;;;;;;;29.60;97.60;;;;;;5033364;28;19913;-74
2023/01/31 06:56:56;;;;;;;;;;;29.60;97.50;;;;;;5030116;28;19935;-74
2023/01/31 06:59:22;;;;;;;;;;;29.50;97.40;;;;;;5028775;28;19952;-73
2023/01/31 07:01:49;;;;;;;;;;;29.50;97.60;;;;;;5029022;28;20023;-74
2023/01/31 07:04:15;;;;;;;;;;;29.50;97.90;;;;;;5026136;28;19976;-75
2023/01/31 07:06:42;;;;;;;;;;;29.50;97.70;;;;;;5028813;28;19928;-75
2023/01/31 07:09:10;;;;;;;;;;;29.30;97.60;;;;;;5025651;28;19935;-75
2023/01/31 07:11:38;;;;;;;;;;;29.20;97.70;;;;;;5026729;28;19917;-74
2023/01/31 07:14:05;;;;;;;;;;;29.20;97.90;;;;;;5027003;28;19916;-74
2023/01/31 07:16:31;;;;;;;;;;;29.20;97.80;;;;;;5030537;28;19917;-75
2023/01/31 07:18:58;;;;;;;;;;;29.20;97.50;;;;;;5031502;28;19923;-74
2023/01/31 07:21:25;;;;;;;;;;;29.20;97.60;;;;;;5033533;28;19921;-73
2023/01/31 07:23:52;;;;;;;;;;;29.20;97.60;;;;;;5035721;28;19912;-73
2023/01/31 07:26:18;;;;;;;;;;;29.20;97.70;;;;;;5032509;28;19940;-74
2023/01/31 07:28:45;;;;;;;;;;;29.20;97.80;;;;;;5033100;28;20039;-74
2023/01/31 07:31:12;;;;;;;;;;;29.20;97.70;;;;;;5032215;28;19913;-75
2023/01/31 07:33:40;;;;;;;;;;;29.00;97.70;;;;;;5034407;28;19975;-74
2023/01/31 07:36:07;;;;;;;;;;;29.00;97.80;;;;;;5034377;28;19921;-74
2023/01/31 07:38:34;;;;;;;;;;;28.90;97.90;;;;;;5034504;28;19909;-75
2023/01/31 07:41:02;;;;;;;;;;;28.90;98.10;;;;;;5033674;28;19920;-73
2023/01/31 07:43:28;;;;;;;;;;;28.80;98.10;;;;;;5030578;28;20272;-74
2023/01/31 07:45:55;;;;;;;;;;;28.80;98.20;;;;;;5031225;28;19978;-74
2023/01/31 07:48:25;;;;;;;;;;;28.70;98.50;;;;;;5032452;28;19959;-74
2023/01/31 07:50:53;;;;;;;;;;;28.50;98.50;;;;;;5032436;28;19920;-74
2023/01/31 07:53:20;;;;;;;;;;;28.40;98.90;;;;;;5032282;28;19916;-74
2023/01/31 07:55:47;;;;;;;;;;;28.40;99.00;;;;;;5032953;28;19960;-75
2023/01/31 07:58:14;;;;;;;;;;;28.30;99.40;;;;;;5032531;28;20378;-74
2023/01/31 08:03:33;;;;;;;;;;;28.00;99.60;;;;;;5032485;28;19942;-74
2023/01/31 08:06:05;;;;;;;;;;;27.80;99.70;;;;;;5031045;28;19923;-73
2023/01/31 08:08:33;;;;;;;;;;;27.60;99.90;;;;;;5033181;28;20086;-75
2023/01/31 08:10:59;;;;;;;;;;;27.50;99.90;;;;;;5032135;28;20010;-75
2023/01/31 08:13:26;;;;;;;;;;;27.40;99.90;;;;;;5029690;28;19920;-75
2023/01/31 08:15:56;;;;;;;;;;;27.20;99.90;;;;;;5030668;28;20597;-75
2023/01/31 08:18:22;;;;;;;;;;;27.20;99.90;;;;;;5030755;28;20946;-74
2023/01/31 08:20:53;;;;;;;;;;;27.10;99.90;;;;;;5029781;28;19962;-74
2023/01/31 08:23:20;;;;;;;;;;;27.00;99.90;;;;;;5033555;28;20271;-75
2023/01/31 08:25:47;;;;;;;;;;;26.90;99.90;;;;;;5031521;28;19923;-74
2023/01/31 08:28:14;;;;;;;;;;;26.80;99.90;;;;;;5030994;28;19919;-75
2023/01/31 08:30:41;;;;;;;;;;;26.70;99.90;;;;;;5030372;28;20012;-75
2023/01/31 08:33:08;;;;;;;;;;;26.60;99.90;;;;;;5031506;28;19987;-74
2023/01/31 08:35:35;;;;;;;;;;;26.50;99.90;;;;;;5031221;28;20376;-74
2023/01/31 08:38:03;;;;;;;;;;;26.40;99.90;;;;;;5031440;28;19924;-75
2023/01/31 08:40:31;;;;;;;;;;;26.40;99.90;;;;;;5030715;28;19917;-73
2023/01/31 08:42:59;;;;;;;;;;;26.30;99.90;;;;;;5030265;28;20414;-74
2023/01/31 08:45:27;;;;;;;;;;;26.20;99.90;;;;;;5032036;28;20360;-75
2023/01/31 08:47:55;;;;;;;;;;;26.20;99.90;;;;;;5031413;28;19919;-75
2023/01/31 08:50:22;;;;;;;;;;;26.10;99.90;;;;;;5031916;28;20007;-74
2023/01/31 08:52:53;;;;;;;;;;;26.00;99.90;;;;;;5029586;28;20260;-73
2023/01/31 08:55:19;;;;;;;;;;;25.90;99.90;;;;;;5031720;28;19908;-74
2023/01/31 08:57:47;;;;;;;;;;;25.80;99.90;;;;;;5030862;28;19908;-75
2023/01/31 09:00:14;;;;;;;;;;;25.70;99.90;;;;;;5030983;28;19994;-74
2023/01/31 09:02:41;;;;;;;;;;;25.60;99.90;;;;;;5031398;28;20007;-75
2023/01/31 09:05:08;;;;;;;;;;;25.60;99.90;;;;;;5030398;28;20385;-74
2023/01/31 09:07:35;;;;;;;;;;;25.60;99.90;;;;;;5034295;28;19909;-74
2023/01/31 09:10:01;;;;;;;;;;;25.60;99.90;;;;;;5034314;28;19913;-73
2023/01/31 09:12:28;;;;;;;;;;;25.60;99.90;;;;;;5031435;28;19917;-73
2023/01/31 09:14:55;;;;;;;;;;;25.50;99.90;;;;;;5031357;28;20276;-74
2023/01/31 09:17:22;;;;;;;;;;;25.50;99.90;;;;;;5029962;28;20666;-74
2023/01/31 09:19:49;;;;;;;;;;;25.40;99.90;;;;;;5028906;28;19917;-74
2023/01/31 09:22:19;;;;;;;;;;;25.50;99.90;;;;;;5030902;28;20276;-73
2023/01/31 09:24:46;;;;;;;;;;;25.40;99.90;;;;;;5031368;28;20023;-74
2023/01/31 09:27:13;;;;;;;;;;;25.20;99.90;;;;;;5031079;28;20031;-74
2023/01/31 09:29:46;;;;;;;;;;;25.20;99.90;;;;;;5030408;28;19917;-74
2023/01/31 09:32:16;;;;;;;;;;;25.10;99.90;;;;;;5032281;28;20382;-74
2023/01/31 09:34:42;;;;;;;;;;;24.90;99.90;;;;;;5029970;28;19963;-73
2023/01/31 09:37:09;;;;;;;;;;;24.90;99.90;;;;;;5033308;28;19948;-72
2023/01/31 09:39:36;;;;;;;;;;;24.70;99.90;;;;;;5029225;28;20389;-74
2023/01/31 09:42:21;;;;;;;;;;;24.70;99.90;;;;;;5034698;28;20752;-72
2023/01/31 09:44:57;;;;;;;;;;;24.60;99.90;;;;;;5033563;28;19920;-74
2023/01/31 09:47:29;;;;;;;;;;;24.60;99.90;;;;;;5036850;28;19924;-73
2023/01/31 09:50:00;;;;;;;;;;;24.50;99.90;;;;;;5031802;28;19919;-72
2023/01/31 09:52:31;;;;;;;;;;;24.40;99.90;;;;;;5034875;28;19919;-73
2023/01/31 09:54:58;;;;;;;;;;;24.30;99.90;;;;;;5032738;28;19913;-73
2023/01/31 09:57:47;;;;;;;;;;;24.20;99.90;;;;;;5034286;28;20280;-74
2023/01/31 10:00:18;;;;;;;;;;;24.10;99.90;;;;;;5032378;28;20358;-73
2023/01/31 10:02:49;;;;;;;;;;;24.00;99.90;;;;;;5034924;28;19921;-73
2023/01/31 10:05:24;;;;;;;;;;;23.90;99.90;;;;;;5034009;28;20399;-74
2023/01/31 10:08:12;;;;;;;;;;;23.90;99.90;;;;;;5034347;28;19916;-73
2023/01/31 10:10:44;;;;;;;;;;;23.80;99.90;;;;;;5036869;28;21494;-75
2023/01/31 10:13:19;;;;;;;;;;;23.70;99.90;;;;;;5034477;28;19912;-75
2023/01/31 10:15:47;;;;;;;;;;;23.70;99.90;;;;;;5032746;28;19919;-75
2023/01/31 10:18:21;;;;;;;;;;;23.60;99.90;;;;;;5033712;28;19927;-73
2023/01/31 10:20:50;;;;;;;;;;;23.60;99.90;;;;;;5036239;28;19983;-73
2023/01/31 10:23:29;;;;;;;;;;;23.50;99.90;;;;;;5034344;28;19981;-73
2023/01/31 10:26:05;;;;;;;;;;;23.50;99.90;;;;;;5033130;28;19940;-74
2023/01/31 10:28:49;;;;;;;;;;;23.40;99.90;;;;;;5032928;28;20475;-74
2023/01/31 10:31:27;;;;;;;;;;;23.40;99.90;;;;;;5033827;28;19947;-73
2023/01/31 10:34:06;;;;;;;;;;;23.30;99.90;;;;;;5034017;28;19916;-74
2023/01/31 10:36:37;;;;;;;;;;;23.30;99.90;;;;;;5033136;28;19951;-75
2023/01/31 10:39:07;;;;;;;;;;;23.30;99.90;;;;;;5035050;28;19912;-74
2023/01/31 10:41:43;;;;;;;;;;;23.30;99.90;;;;;;5033244;28;20369;-73
2023/01/31 10:44:22;;;;;;;;;;;23.30;99.90;;;;;;5034473;28;19913;-74
2023/01/31 10:46:48;;;;;;;;;;;23.30;99.90;;;;;;5033601;28;19923;-73
2023/01/31 10:49:15;;;;;;;;;;;23.20;99.90;;;;;;5032537;28;19912;-73
2023/01/31 10:51:57;;;;;;;;;;;23.20;99.90;;;;;;5031964;28;19913;-72
2023/01/31 10:54:33;;;;;;;;;;;23.10;99.90;;;;;;5029625;28;22453;-73
2023/01/31 10:57:00;;;;;;;;;;;23.00;99.90;;;;;;5031300;28;19958;-73
2023/01/31 10:59:32;;;;;;;;;;;23.00;99.90;;;;;;5032200;28;19924;-72
2023/01/31 11:02:00;;;;;;;;;;;22.90;99.90;;;;;;5030318;28;19987;-73
2023/01/31 11:04:30;;;;;;;;;;;22.90;99.90;;;;;;5031717;28;19924;-73
2023/01/31 11:06:57;;;;;;;;;;;22.80;99.90;;;;;;5034770;28;19966;-73
2023/01/31 11:09:27;;;;;;;;;;;22.70;99.90;;;;;;5035045;28;20029;-72
2023/01/31 11:11:58;;;;;;;;;;;22.70;99.90;;;;;;5033829;28;19944;-73
2023/01/31 11:14:25;;;;;;;;;;;22.70;99.90;;;;;;5032064;28;19925;-74
2023/01/31 11:17:09;;;;;;;;;;;22.60;99.90;;;;;;5032033;28;19923;-73
2023/01/31 11:19:45;;;;;;;;;;;22.60;99.90;;;;;;5031480;28;19920;-74
2023/01/31 11:22:20;;;;;;;;;;;22.50;99.90;;;;;;5029752;28;19927;-74
2023/01/31 11:24:48;;;;;;;;;;;22.40;99.90;;;;;;5029733;28;19990;-73
2023/01/31 11:27:23;;;;;;;;;;;22.40;99.90;;;;;;5032241;28;19951;-73
2023/01/31 11:29:52;;;;;;;;;;;22.40;99.90;;;;;;5030200;28;20389;-73
2023/01/31 11:32:20;;;;;;;;;;;22.30;99.90;;;;;;5032970;28;19931;-72
2023/01/31 11:35:03;;;;;;;;;;;22.30;99.90;;;;;;5030412;28;20343;-73
2023/01/31 11:37:29;;;;;;;;;;;22.20;99.90;;;;;;5032038;28;19925;-72
2023/01/31 11:40:01;;;;;;;;;;;22.30;99.90;;;;;;5032758;28;20007;-72
2023/01/31 11:42:28;;;;;;;;;;;22.20;99.90;;;;;;5032877;28;19936;-73
2023/01/31 11:45:15;;;;;;;;;;;22.20;99.90;;;;;;5030473;28;19916;-74
2023/01/31 11:47:43;;;;;;;;;;;22.20;99.90;;;;;;5031932;28;19909;-73
2023/01/31 11:50:30;;;;;;;;;;;22.20;99.90;;;;;;5032781;28;19924;-73
2023/01/31 11:53:01;;;;;;;;;;;22.10;99.90;;;;;;5031445;28;19947;-74
2023/01/31 11:55:39;;;;;;;;;;;22.10;99.90;;;;;;5029930;28;19917;-74
2023/01/31 11:58:15;;;;;;;;;;;22.10;99.90;;;;;;5027256;28;19917;-74
2023/01/31 12:00:51;;;;;;;;;;;22.10;99.90;;;;;;5032023;28;20027;-73
2023/01/31 12:03:18;;;;;;;;;;;22.00;99.90;;;;;;5029276;28;19908;-73
2023/01/31 12:05:48;;;;;;;;;;;22.00;99.90;;;;;;5028882;28;19991;-73
2023/01/31 12:08:34;;;;;;;;;;;22.00;99.90;;;;;;5028449;28;19913;-73
2023/01/31 12:11:05;;;;;;;;;;;21.90;99.90;;;;;;5028598;28;20973;-73
2023/01/31 12:13:44;;;;;;;;;;;21.90;99.90;;;;;;5031663;28;19944;-72
2023/01/31 12:16:11;;;;;;;;;;;21.90;99.90;;;;;;5032996;28;19920;-71
2023/01/31 12:18:38;;;;;;;;;;;22.00;99.90;;;;;;5029577;28;19928;-73
2023/01/31 12:21:11;;;;;;;;;;;21.90;99.90;;;;;;5033493;28;19928;-73
2023/01/31 12:23:54;;;;;;;;;;;21.90;99.90;;;;;;5031126;28;19912;-73
2023/01/31 12:26:27;;;;;;;;;;;21.90;99.90;;;;;;5032858;28;20367;-71
2023/01/31 12:29:07;;;;;;;;;;;21.80;99.90;;;;;;5029991;28;19917;-72
2023/01/31 12:31:37;;;;;;;;;;;21.80;99.90;;;;;;5031167;28;19948;-72
2023/01/31 12:34:14;;;;;;;;;;;21.80;99.90;;;;;;5030916;28;19959;-72
2023/01/31 12:36:47;;;;;;;;;;;21.70;99.90;;;;;;5032741;28;19921;-72
2023/01/31 12:39:16;;;;;;;;;;;21.70;99.90;;;;;;5031951;28;19928;-72
2023/01/31 12:41:52;;;;;;;;;;;21.60;99.90;;;;;;5030952;28;19920;-73
2023/01/31 12:44:37;;;;;;;;;;;21.70;99.90;;;;;;5030890;28;19913;-72
2023/01/31 12:47:04;;;;;;;;;;;21.60;99.90;;;;;;5033129;28;19923;-73
2023/01/31 12:49:48;;;;;;;;;;;21.60;99.90;;;;;;5031348;28;20024;-73
2023/01/31 12:52:22;;;;;;;;;;;21.50;99.90;;;;;;5032422;28;19916;-73
2023/01/31 12:55:07;;;;;;;;;;;21.50;99.90;;;;;;5031674;28;20546;-72
2023/01/31 12:57:49;;;;;;;;;;;21.50;99.90;;;;;;5031196;28;19928;-72
2023/01/31 13:00:25;;;;;;;;;;;21.40;99.90;;;;;;5031973;28;19916;-72
2023/01/31 13:03:10;;;;;;;;;;;21.40;99.90;;;;;;5030915;28;19917;-72
2023/01/31 13:05:37;;;;;;;;;;;21.40;99.90;;;;;;5031404;28;19912;-73
2023/01/31 13:08:16;;;;;;;;;;;21.40;99.90;;;;;;5039601;28;20012;-72
2023/01/31 13:10:48;;;;;;;;;;;21.40;99.90;;;;;;5033334;28;19970;-73
2023/01/31 13:13:22;;;;;;;;;;;21.40;99.90;;;;;;5027520;28;20418;-72
2023/01/31 13:16:04;;;;;;;;;;;21.30;99.90;;;;;;5032453;28;19917;-72
2023/01/31 13:18:33;;;;;;;;;;;21.30;99.90;;;;;;5036537;28;20355;-74
2023/01/31 13:21:07;;;;;;;;;;;21.30;99.90;;;;;;5035684;28;19924;-72
2023/01/31 13:23:39;;;;;;;;;;;21.20;99.90;;;;;;5035622;28;20359;-70
2023/01/31 13:26:11;;;;;;;;;;;21.20;99.90;;;;;;5032330;28;20331;-69
2023/01/31 13:28:42;;;;;;;;;;;21.10;99.90;;;;;;5033559;28;19912;-71
2023/01/31 13:31:14;;;;;;;;;;;21.10;99.90;;;;;;5033818;28;19919;-71
2023/01/31 13:33:47;;;;;;;;;;;21.00;99.90;;;;;;5029518;28;19970;-70
2023/01/31 13:36:16;;;;;;;;;;;21.00;99.90;;;;;;5031557;28;19949;-70
2023/01/31 13:38:44;;;;;;;;;;;20.90;99.90;;;;;;5030433;28;19924;-70
2023/01/31 13:41:19;;;;;;;;;;;20.90;99.90;;;;;;5044808;28;19921;-71
2023/01/31 13:43:47;;;;;;;;;;;20.90;99.90;;;;;;5033357;28;19919;-69
2023/01/31 13:46:16;;;;;;;;;;;20.80;99.90;;;;;;5033686;28;19951;-69
2023/01/31 13:48:55;;;;;;;;;;;20.80;99.90;;;;;;5034077;28;20003;-69
2023/01/31 13:51:29;;;;;;;;;;;20.80;99.90;;;;;;5035822;28;19960;-69
2023/01/31 13:53:59;;;;;;;;;;;20.80;99.90;;;;;;5034525;28;19920;-69
2023/01/31 13:56:27;;;;;;;;;;;20.70;99.90;;;;;;5035020;28;20007;-70
2023/01/31 13:58:55;;;;;;;;;;;20.70;99.90;;;;;;5033347;28;20318;-71
2023/01/31 14:01:23;;;;;;;;;;;20.70;99.90;;;;;;5033840;28;20342;-71
2023/01/31 14:04:08;;;;;;;;;;;20.70;99.90;;;;;;5034150;28;22369;-71
2023/01/31 14:07:08;;;;;;;;;;;20.70;99.90;;;;;;5032898;28;19912;-71
2023/01/31 14:09:36;;;;;;;;;;;20.70;99.90;;;;;;5000680;28;22249;-70
2023/01/31 14:12:17;;;;;;;;;;;20.70;99.90;;;;;;5039318;28;20264;-69
2023/01/31 14:14:56;;;;;;;;;;;20.70;99.90;;;;;;5033702;28;20013;-71
2023/01/31 14:17:29;;;;;;;;;;;20.70;99.90;;;;;;5032964;28;20442;-69
2023/01/31 14:20:06;;;;;;;;;;;20.60;99.90;;;;;;5036920;28;20428;-68
2023/01/31 14:22:34;;;;;;;;;;;20.60;99.90;;;;;;5033487;28;19924;-71
2023/01/31 14:25:04;;;;;;;;;;;20.60;99.90;;;;;;5032797;28;19916;-72
2023/01/31 14:27:50;;;;;;;;;;;20.50;99.90;;;;;;5033002;28;19949;-71
2023/01/31 14:30:26;;;;;;;;;;;20.50;99.90;;;;;;5048547;28;20528;-72
2023/01/31 14:33:11;;;;;;;;;;;20.50;99.90;;;;;;5031872;28;19923;-70
2023/01/31 14:35:49;;;;;;;;;;;20.50;99.90;;;;;;5032353;28;19917;-68
2023/01/31 14:38:34;;;;;;;;;;;20.50;99.90;;;;;;5032454;28;19920;-70
2023/01/31 14:41:28;;;;;;;;;;;20.50;99.90;;;;;;5031422;28;19921;-70